sensor_id;sensor_type;location;lat;lon;timestamp;temperature;humidity
56172;DHT22;42052;41.634;-0.946;2023-03-04T00:01:22;19.90;39.20
56172;DHT22;42052;41.634;-0.946;2023-03-04T00:04:08;19.90;39.30
56172;DHT22;42052;41.634;-0.946;2023-03-04T00:06:54;19.80;39.30
56172;DHT22;42052;41.634;-0.946;2023-03-04T00:09:41;19.80;39.20
56172;DHT22;42052;41.634;-0.946;2023-03-04T00:12:27;19.80;39.10
56172;DHT22;42052;41.634;-0.946;2023-03-04T00:15:13;19.80;39.10
56172;DHT22;42052;41.634;-0.946;2023-03-04T00:17:59;19.80;39.10
56172;DHT22;42052;41.634;-0.946;2023-03-04T00:20:46;19.80;39.30
56172;DHT22;42052;41.634;-0.946;2023-03-04T00:23:32;19.80;39.20
56172;DHT22;42052;41.634;-0.946;2023-03-04T00:26:18;19.80;39.20
56172;DHT22;42052;41.634;-0.946;2023-03-04T00:29:04;19.70;39.10
56172;DHT22;42052;41.634;-0.946;2023-03-04T00:31:50;19.80;39.10
56172;DHT22;42052;41.634;-0.946;2023-03-04T00:34:36;19.80;39.00
56172;DHT22;42052;41.634;-0.946;2023-03-04T00:37:22;19.80;39.10
56172;DHT22;42052;41.634;-0.946;2023-03-04T00:40:09;19.80;39.00
56172;DHT22;42052;41.634;-0.946;2023-03-04T00:42:55;19.80;39.00
56172;DHT22;42052;41.634;-0.946;2023-03-04T00:45:42;19.70;38.90
56172;DHT22;42052;41.634;-0.946;2023-03-04T00:48:28;19.70;39.00
56172;DHT22;42052;41.634;-0.946;2023-03-04T00:51:14;19.70;39.00
56172;DHT22;42052;41.634;-0.946;2023-03-04T00:54:00;19.70;38.90
56172;DHT22;42052;41.634;-0.946;2023-03-04T00:56:46;19.70;39.00
56172;DHT22;42052;41.634;-0.946;2023-03-04T00:59:32;19.70;39.00
56172;DHT22;42052;41.634;-0.946;2023-03-04T01:02:18;19.60;38.90
56172;DHT22;42052;41.634;-0.946;2023-03-04T01:05:05;19.70;39.00
56172;DHT22;42052;41.634;-0.946;2023-03-04T01:07:51;19.60;38.80
56172;DHT22;42052;41.634;-0.946;2023-03-04T01:10:37;19.60;39.10
56172;DHT22;42052;41.634;-0.946;2023-03-04T01:13:23;19.60;38.80
56172;DHT22;42052;41.634;-0.946;2023-03-04T01:16:09;19.60;38.90
56172;DHT22;42052;41.634;-0.946;2023-03-04T01:18:56;19.60;38.90
56172;DHT22;42052;41.634;-0.946;2023-03-04T01:21:42;19.60;38.80
56172;DHT22;42052;41.634;-0.946;2023-03-04T01:24:28;19.60;38.80
56172;DHT22;42052;41.634;-0.946;2023-03-04T01:27:15;19.50;38.90
56172;DHT22;42052;41.634;-0.946;2023-03-04T01:30:02;19.50;38.80
56172;DHT22;42052;41.634;-0.946;2023-03-04T01:32:48;19.50;39.00
56172;DHT22;42052;41.634;-0.946;2023-03-04T01:35:34;19.50;38.80
56172;DHT22;42052;41.634;-0.946;2023-03-04T01:38:20;19.50;38.80
56172;DHT22;42052;41.634;-0.946;2023-03-04T01:41:06;19.50;39.90
56172;DHT22;42052;41.634;-0.946;2023-03-04T01:43:57;19.50;38.80
56172;DHT22;42052;41.634;-0.946;2023-03-04T01:46:49;19.50;39.00
56172;DHT22;42052;41.634;-0.946;2023-03-04T01:49:36;19.50;38.80
56172;DHT22;42052;41.634;-0.946;2023-03-04T01:52:22;19.50;38.60
56172;DHT22;42052;41.634;-0.946;2023-03-04T01:55:15;19.50;38.70
56172;DHT22;42052;41.634;-0.946;2023-03-04T01:58:04;19.50;38.80
56172;DHT22;42052;41.634;-0.946;2023-03-04T02:00:50;19.40;38.80
56172;DHT22;42052;41.634;-0.946;2023-03-04T02:03:37;19.50;38.70
56172;DHT22;42052;41.634;-0.946;2023-03-04T02:06:23;19.40;38.80
56172;DHT22;42052;41.634;-0.946;2023-03-04T02:09:10;19.40;38.70
56172;DHT22;42052;41.634;-0.946;2023-03-04T02:11:56;19.40;38.90
56172;DHT22;42052;41.634;-0.946;2023-03-04T02:14:42;19.40;38.90
56172;DHT22;42052;41.634;-0.946;2023-03-04T02:17:30;19.40;38.90
56172;DHT22;42052;41.634;-0.946;2023-03-04T02:20:42;19.40;38.80
56172;DHT22;42052;41.634;-0.946;2023-03-04T02:23:38;19.40;38.80
56172;DHT22;42052;41.634;-0.946;2023-03-04T02:26:30;19.40;38.70
56172;DHT22;42052;41.634;-0.946;2023-03-04T02:29:17;19.40;38.70
56172;DHT22;42052;41.634;-0.946;2023-03-04T02:32:03;19.40;38.80
56172;DHT22;42052;41.634;-0.946;2023-03-04T02:34:50;19.30;39.60
56172;DHT22;42052;41.634;-0.946;2023-03-04T02:37:36;19.40;38.70
56172;DHT22;42052;41.634;-0.946;2023-03-04T02:40:28;19.30;38.60
56172;DHT22;42052;41.634;-0.946;2023-03-04T02:43:15;19.30;38.90
56172;DHT22;42052;41.634;-0.946;2023-03-04T02:46:01;19.30;38.50
56172;DHT22;42052;41.634;-0.946;2023-03-04T02:48:49;19.30;38.60
56172;DHT22;42052;41.634;-0.946;2023-03-04T02:51:35;19.30;38.80
56172;DHT22;42052;41.634;-0.946;2023-03-04T02:54:23;19.30;39.30
56172;DHT22;42052;41.634;-0.946;2023-03-04T02:57:10;19.30;38.90
56172;DHT22;42052;41.634;-0.946;2023-03-04T02:59:57;19.30;39.00
56172;DHT22;42052;41.634;-0.946;2023-03-04T03:02:43;19.30;38.90
56172;DHT22;42052;41.634;-0.946;2023-03-04T03:05:31;19.30;39.00
56172;DHT22;42052;41.634;-0.946;2023-03-04T03:08:17;19.20;38.70
56172;DHT22;42052;41.634;-0.946;2023-03-04T03:11:03;19.20;38.80
56172;DHT22;42052;41.634;-0.946;2023-03-04T03:13:49;19.20;39.00
56172;DHT22;42052;41.634;-0.946;2023-03-04T03:16:36;19.20;38.70
56172;DHT22;42052;41.634;-0.946;2023-03-04T03:19:22;19.20;38.60
56172;DHT22;42052;41.634;-0.946;2023-03-04T03:22:08;19.20;38.60
56172;DHT22;42052;41.634;-0.946;2023-03-04T03:24:54;19.20;39.00
56172;DHT22;42052;41.634;-0.946;2023-03-04T03:27:40;19.20;38.60
56172;DHT22;42052;41.634;-0.946;2023-03-04T03:30:27;19.10;38.90
56172;DHT22;42052;41.634;-0.946;2023-03-04T03:33:13;19.20;39.00
56172;DHT22;42052;41.634;-0.946;2023-03-04T03:35:59;19.10;38.90
56172;DHT22;42052;41.634;-0.946;2023-03-04T03:38:45;19.20;38.90
56172;DHT22;42052;41.634;-0.946;2023-03-04T03:41:32;19.20;39.00
56172;DHT22;42052;41.634;-0.946;2023-03-04T03:44:18;19.10;38.90
56172;DHT22;42052;41.634;-0.946;2023-03-04T03:47:04;19.10;38.70
56172;DHT22;42052;41.634;-0.946;2023-03-04T03:49:50;19.10;38.50
56172;DHT22;42052;41.634;-0.946;2023-03-04T03:52:36;19.20;38.80
56172;DHT22;42052;41.634;-0.946;2023-03-04T03:55:22;19.20;38.70
56172;DHT22;42052;41.634;-0.946;2023-03-04T03:58:08;19.20;38.70
56172;DHT22;42052;41.634;-0.946;2023-03-04T04:00:54;19.10;38.70
56172;DHT22;42052;41.634;-0.946;2023-03-04T04:03:41;19.10;38.60
56172;DHT22;42052;41.634;-0.946;2023-03-04T04:06:27;19.10;38.50
56172;DHT22;42052;41.634;-0.946;2023-03-04T04:09:13;19.10;38.50
56172;DHT22;42052;41.634;-0.946;2023-03-04T04:12:00;19.10;38.50
56172;DHT22;42052;41.634;-0.946;2023-03-04T04:14:46;19.10;38.40
56172;DHT22;42052;41.634;-0.946;2023-03-04T04:17:32;19.00;38.40
56172;DHT22;42052;41.634;-0.946;2023-03-04T04:20:18;19.00;38.10
56172;DHT22;42052;41.634;-0.946;2023-03-04T04:23:04;19.00;38.30
56172;DHT22;42052;41.634;-0.946;2023-03-04T04:25:50;19.00;38.60
56172;DHT22;42052;41.634;-0.946;2023-03-04T04:28:39;19.00;38.40
56172;DHT22;42052;41.634;-0.946;2023-03-04T04:31:26;19.00;38.40
56172;DHT22;42052;41.634;-0.946;2023-03-04T04:34:12;19.00;38.30
56172;DHT22;42052;41.634;-0.946;2023-03-04T04:36:58;19.00;38.30
56172;DHT22;42052;41.634;-0.946;2023-03-04T04:39:44;19.00;38.00
56172;DHT22;42052;41.634;-0.946;2023-03-04T04:42:30;19.00;38.10
56172;DHT22;42052;41.634;-0.946;2023-03-04T04:45:16;19.00;38.20
56172;DHT22;42052;41.634;-0.946;2023-03-04T04:48:02;19.00;38.40
56172;DHT22;42052;41.634;-0.946;2023-03-04T04:50:53;19.00;38.70
56172;DHT22;42052;41.634;-0.946;2023-03-04T04:53:40;19.00;38.60
56172;DHT22;42052;41.634;-0.946;2023-03-04T04:56:27;19.10;38.70
56172;DHT22;42052;41.634;-0.946;2023-03-04T04:59:13;19.10;38.70
56172;DHT22;42052;41.634;-0.946;2023-03-04T05:01:59;19.20;38.70
56172;DHT22;42052;41.634;-0.946;2023-03-04T05:04:45;19.20;38.60
56172;DHT22;42052;41.634;-0.946;2023-03-04T05:07:32;19.20;38.50
56172;DHT22;42052;41.634;-0.946;2023-03-04T05:10:18;19.20;38.50
56172;DHT22;42052;41.634;-0.946;2023-03-04T05:13:04;19.30;38.50
56172;DHT22;42052;41.634;-0.946;2023-03-04T05:15:52;19.30;38.40
56172;DHT22;42052;41.634;-0.946;2023-03-04T05:18:39;19.30;38.40
56172;DHT22;42052;41.634;-0.946;2023-03-04T05:21:25;19.30;38.30
56172;DHT22;42052;41.634;-0.946;2023-03-04T05:24:11;19.30;38.30
56172;DHT22;42052;41.634;-0.946;2023-03-04T05:26:57;19.30;38.20
56172;DHT22;42052;41.634;-0.946;2023-03-04T05:29:43;19.30;38.20
56172;DHT22;42052;41.634;-0.946;2023-03-04T05:32:31;19.40;38.20
56172;DHT22;42052;41.634;-0.946;2023-03-04T05:35:17;19.30;38.10
56172;DHT22;42052;41.634;-0.946;2023-03-04T05:38:05;19.30;38.10
56172;DHT22;42052;41.634;-0.946;2023-03-04T05:40:59;19.30;38.00
56172;DHT22;42052;41.634;-0.946;2023-03-04T05:43:46;19.40;38.00
56172;DHT22;42052;41.634;-0.946;2023-03-04T05:46:32;19.40;38.00
56172;DHT22;42052;41.634;-0.946;2023-03-04T05:49:18;19.40;37.90
56172;DHT22;42052;41.634;-0.946;2023-03-04T05:52:04;19.40;37.90
56172;DHT22;42052;41.634;-0.946;2023-03-04T05:54:50;19.40;37.90
56172;DHT22;42052;41.634;-0.946;2023-03-04T05:57:36;19.40;37.80
56172;DHT22;42052;41.634;-0.946;2023-03-04T06:00:23;19.40;37.90
56172;DHT22;42052;41.634;-0.946;2023-03-04T06:03:21;19.40;37.90
56172;DHT22;42052;41.634;-0.946;2023-03-04T06:06:07;19.40;37.90
56172;DHT22;42052;41.634;-0.946;2023-03-04T06:08:53;19.40;37.80
56172;DHT22;42052;41.634;-0.946;2023-03-04T06:11:39;19.40;37.70
56172;DHT22;42052;41.634;-0.946;2023-03-04T06:14:26;19.40;37.60
56172;DHT22;42052;41.634;-0.946;2023-03-04T06:17:12;19.40;37.60
56172;DHT22;42052;41.634;-0.946;2023-03-04T06:19:58;19.40;37.70
56172;DHT22;42052;41.634;-0.946;2023-03-04T06:22:44;19.40;37.70
56172;DHT22;42052;41.634;-0.946;2023-03-04T06:25:31;19.40;37.60
56172;DHT22;42052;41.634;-0.946;2023-03-04T06:28:17;19.40;37.70
56172;DHT22;42052;41.634;-0.946;2023-03-04T06:31:03;19.40;37.70
56172;DHT22;42052;41.634;-0.946;2023-03-04T06:33:49;19.40;37.60
56172;DHT22;42052;41.634;-0.946;2023-03-04T06:36:36;19.40;37.60
56172;DHT22;42052;41.634;-0.946;2023-03-04T06:39:22;19.40;37.50
56172;DHT22;42052;41.634;-0.946;2023-03-04T06:42:08;19.40;37.50
56172;DHT22;42052;41.634;-0.946;2023-03-04T06:44:54;19.40;37.50
56172;DHT22;42052;41.634;-0.946;2023-03-04T06:47:40;19.40;37.50
56172;DHT22;42052;41.634;-0.946;2023-03-04T06:50:26;19.40;37.50
56172;DHT22;42052;41.634;-0.946;2023-03-04T06:53:12;19.40;37.50
56172;DHT22;42052;41.634;-0.946;2023-03-04T06:55:58;19.40;37.40
56172;DHT22;42052;41.634;-0.946;2023-03-04T06:58:45;19.40;37.40
56172;DHT22;42052;41.634;-0.946;2023-03-04T07:01:31;19.40;37.40
56172;DHT22;42052;41.634;-0.946;2023-03-04T07:04:17;19.40;37.60
56172;DHT22;42052;41.634;-0.946;2023-03-04T07:07:03;19.40;37.50
56172;DHT22;42052;41.634;-0.946;2023-03-04T07:09:49;19.40;37.40
56172;DHT22;42052;41.634;-0.946;2023-03-04T07:12:35;19.40;37.50
56172;DHT22;42052;41.634;-0.946;2023-03-04T07:15:21;19.40;37.50
56172;DHT22;42052;41.634;-0.946;2023-03-04T07:18:08;19.40;37.50
56172;DHT22;42052;41.634;-0.946;2023-03-04T07:20:54;19.50;37.50
56172;DHT22;42052;41.634;-0.946;2023-03-04T07:23:40;19.40;37.40
56172;DHT22;42052;41.634;-0.946;2023-03-04T07:26:26;19.50;37.50
56172;DHT22;42052;41.634;-0.946;2023-03-04T07:29:12;19.50;37.40
56172;DHT22;42052;41.634;-0.946;2023-03-04T07:31:58;19.50;37.40
56172;DHT22;42052;41.634;-0.946;2023-03-04T07:34:44;19.50;37.40
56172;DHT22;42052;41.634;-0.946;2023-03-04T07:37:30;19.50;37.30
56172;DHT22;42052;41.634;-0.946;2023-03-04T07:40:17;19.50;37.40
56172;DHT22;42052;41.634;-0.946;2023-03-04T07:43:03;19.50;37.30
56172;DHT22;42052;41.634;-0.946;2023-03-04T07:45:49;19.50;37.30
56172;DHT22;42052;41.634;-0.946;2023-03-04T07:48:35;19.50;37.30
56172;DHT22;42052;41.634;-0.946;2023-03-04T07:51:23;19.50;37.30
56172;DHT22;42052;41.634;-0.946;2023-03-04T07:54:10;19.50;37.30
56172;DHT22;42052;41.634;-0.946;2023-03-04T07:56:56;19.50;37.20
56172;DHT22;42052;41.634;-0.946;2023-03-04T07:59:42;19.50;37.30
56172;DHT22;42052;41.634;-0.946;2023-03-04T08:02:28;19.50;37.20
56172;DHT22;42052;41.634;-0.946;2023-03-04T08:05:14;19.50;37.10
56172;DHT22;42052;41.634;-0.946;2023-03-04T08:08:00;19.50;37.10
56172;DHT22;42052;41.634;-0.946;2023-03-04T08:10:47;19.50;37.00
56172;DHT22;42052;41.634;-0.946;2023-03-04T08:13:34;19.50;36.90
56172;DHT22;42052;41.634;-0.946;2023-03-04T08:16:22;19.50;36.80
56172;DHT22;42052;41.634;-0.946;2023-03-04T08:19:09;19.50;36.70
56172;DHT22;42052;41.634;-0.946;2023-03-04T08:21:55;19.50;36.70
56172;DHT22;42052;41.634;-0.946;2023-03-04T08:24:41;19.50;36.50
56172;DHT22;42052;41.634;-0.946;2023-03-04T08:27:28;19.50;36.70
56172;DHT22;42052;41.634;-0.946;2023-03-04T08:30:14;19.50;36.60
56172;DHT22;42052;41.634;-0.946;2023-03-04T08:33:02;19.50;36.70
56172;DHT22;42052;41.634;-0.946;2023-03-04T08:35:48;19.50;36.50
56172;DHT22;42052;41.634;-0.946;2023-03-04T08:38:34;19.50;36.50
56172;DHT22;42052;41.634;-0.946;2023-03-04T08:41:20;19.60;36.70
56172;DHT22;42052;41.634;-0.946;2023-03-04T08:44:07;19.50;36.60
56172;DHT22;42052;41.634;-0.946;2023-03-04T08:46:55;19.60;36.70
56172;DHT22;42052;41.634;-0.946;2023-03-04T08:49:41;19.50;37.40
56172;DHT22;42052;41.634;-0.946;2023-03-04T08:52:28;19.50;36.70
56172;DHT22;42052;41.634;-0.946;2023-03-04T08:55:15;19.50;36.60
56172;DHT22;42052;41.634;-0.946;2023-03-04T08:58:01;19.50;36.60
56172;DHT22;42052;41.634;-0.946;2023-03-04T09:00:48;19.50;36.60
56172;DHT22;42052;41.634;-0.946;2023-03-04T09:03:36;19.50;36.50
56172;DHT22;42052;41.634;-0.946;2023-03-04T09:06:23;19.50;36.40
56172;DHT22;42052;41.634;-0.946;2023-03-04T09:09:09;19.50;36.30
56172;DHT22;42052;41.634;-0.946;2023-03-04T09:11:55;19.60;36.30
56172;DHT22;42052;41.634;-0.946;2023-03-04T09:14:41;19.60;36.20
56172;DHT22;42052;41.634;-0.946;2023-03-04T09:17:27;19.50;36.20
56172;DHT22;42052;41.634;-0.946;2023-03-04T09:20:13;19.60;37.00
56172;DHT22;42052;41.634;-0.946;2023-03-04T09:23:00;19.50;36.00
56172;DHT22;42052;41.634;-0.946;2023-03-04T09:25:46;19.60;36.00
56172;DHT22;42052;41.634;-0.946;2023-03-04T09:28:34;19.60;36.10
56172;DHT22;42052;41.634;-0.946;2023-03-04T09:31:20;19.60;36.10
56172;DHT22;42052;41.634;-0.946;2023-03-04T09:34:06;19.60;36.10
56172;DHT22;42052;41.634;-0.946;2023-03-04T09:36:52;19.50;36.00
56172;DHT22;42052;41.634;-0.946;2023-03-04T09:39:38;19.60;36.00
56172;DHT22;42052;41.634;-0.946;2023-03-04T09:42:30;19.60;36.00
56172;DHT22;42052;41.634;-0.946;2023-03-04T09:45:24;19.60;35.90
56172;DHT22;42052;41.634;-0.946;2023-03-04T09:48:16;19.60;36.00
56172;DHT22;42052;41.634;-0.946;2023-03-04T09:57:26;19.60;35.90
56172;DHT22;42052;41.634;-0.946;2023-03-04T10:03:26;19.70;35.90
56172;DHT22;42052;41.634;-0.946;2023-03-04T10:06:20;19.70;35.90
56172;DHT22;42052;41.634;-0.946;2023-03-04T10:09:16;19.70;35.90
56172;DHT22;42052;41.634;-0.946;2023-03-04T10:12:10;19.70;35.70
56172;DHT22;42052;41.634;-0.946;2023-03-04T10:24:28;19.90;36.80
56172;DHT22;42052;41.634;-0.946;2023-03-04T10:27:17;19.90;36.70
56172;DHT22;42052;41.634;-0.946;2023-03-04T10:30:29;19.90;36.50
56172;DHT22;42052;41.634;-0.946;2023-03-04T10:33:20;19.90;36.50
56172;DHT22;42052;41.634;-0.946;2023-03-04T10:45:00;19.90;35.90
56172;DHT22;42052;41.634;-0.946;2023-03-04T10:47:52;19.90;35.90
56172;DHT22;42052;41.634;-0.946;2023-03-04T10:50:38;19.90;35.80
56172;DHT22;42052;41.634;-0.946;2023-03-04T10:53:30;20.00;36.10
56172;DHT22;42052;41.634;-0.946;2023-03-04T10:56:57;19.90;36.10
56172;DHT22;42052;41.634;-0.946;2023-03-04T10:59:54;19.90;36.60
56172;DHT22;42052;41.634;-0.946;2023-03-04T11:02:41;20.00;36.60
56172;DHT22;42052;41.634;-0.946;2023-03-04T11:05:31;20.00;37.00
56172;DHT22;42052;41.634;-0.946;2023-03-04T11:08:21;20.00;36.70
56172;DHT22;42052;41.634;-0.946;2023-03-04T11:11:42;20.00;36.80
56172;DHT22;42052;41.634;-0.946;2023-03-04T11:14:36;20.00;36.70
56172;DHT22;42052;41.634;-0.946;2023-03-04T11:17:27;20.00;36.60
56172;DHT22;42052;41.634;-0.946;2023-03-04T11:23:15;20.00;36.30
56172;DHT22;42052;41.634;-0.946;2023-03-04T11:26:05;20.10;36.90
56172;DHT22;42052;41.634;-0.946;2023-03-04T11:28:56;20.10;36.10
56172;DHT22;42052;41.634;-0.946;2023-03-04T11:31:52;20.10;36.00
56172;DHT22;42052;41.634;-0.946;2023-03-04T11:34:45;20.10;35.80
56172;DHT22;42052;41.634;-0.946;2023-03-04T11:37:59;20.10;35.60
56172;DHT22;42052;41.634;-0.946;2023-03-04T11:41:01;20.20;36.10
56172;DHT22;42052;41.634;-0.946;2023-03-04T11:43:49;20.20;37.00
56172;DHT22;42052;41.634;-0.946;2023-03-04T11:56:08;20.40;41.80
56172;DHT22;42052;41.634;-0.946;2023-03-04T11:59:28;20.40;41.40
56172;DHT22;42052;41.634;-0.946;2023-03-04T12:02:20;20.50;42.10
56172;DHT22;42052;41.634;-0.946;2023-03-04T12:30:08;20.50;43.30
56172;DHT22;42052;41.634;-0.946;2023-03-04T12:33:23;20.50;42.90
56172;DHT22;42052;41.634;-0.946;2023-03-04T12:45:24;20.50;42.20
56172;DHT22;42052;41.634;-0.946;2023-03-04T12:48:40;20.50;42.00
56172;DHT22;42052;41.634;-0.946;2023-03-04T12:54:28;20.50;41.60
56172;DHT22;42052;41.634;-0.946;2023-03-04T12:57:19;20.50;41.30
56172;DHT22;42052;41.634;-0.946;2023-03-04T13:06:07;20.60;40.70
56172;DHT22;42052;41.634;-0.946;2023-03-04T13:09:28;20.60;40.50
56172;DHT22;42052;41.634;-0.946;2023-03-04T13:12:17;20.60;40.30
56172;DHT22;42052;41.634;-0.946;2023-03-04T13:17:55;20.60;40.10
56172;DHT22;42052;41.634;-0.946;2023-03-04T13:20:42;20.60;39.90
56172;DHT22;42052;41.634;-0.946;2023-03-04T13:23:28;20.60;39.90
56172;DHT22;42052;41.634;-0.946;2023-03-04T13:32:11;20.60;39.50
56172;DHT22;42052;41.634;-0.946;2023-03-04T13:34:57;20.60;39.20
56172;DHT22;42052;41.634;-0.946;2023-03-04T13:37:56;20.60;39.10
56172;DHT22;42052;41.634;-0.946;2023-03-04T13:40:43;20.60;39.20
56172;DHT22;42052;41.634;-0.946;2023-03-04T13:46:42;20.60;38.70
56172;DHT22;42052;41.634;-0.946;2023-03-04T13:49:28;20.60;38.60
56172;DHT22;42052;41.634;-0.946;2023-03-04T13:52:40;20.60;38.70
56172;DHT22;42052;41.634;-0.946;2023-03-04T13:55:39;20.60;38.50
56172;DHT22;42052;41.634;-0.946;2023-03-04T13:58:26;20.60;38.50
56172;DHT22;42052;41.634;-0.946;2023-03-04T14:01:25;20.60;38.40
56172;DHT22;42052;41.634;-0.946;2023-03-04T14:12:57;20.60;37.90
56172;DHT22;42052;41.634;-0.946;2023-03-04T14:15:56;20.60;38.10
56172;DHT22;42052;41.634;-0.946;2023-03-04T14:18:42;20.60;37.90
56172;DHT22;42052;41.634;-0.946;2023-03-04T14:21:29;20.60;38.20
56172;DHT22;42052;41.634;-0.946;2023-03-04T14:24:18;20.60;38.00
56172;DHT22;42052;41.634;-0.946;2023-03-04T14:27:12;20.60;37.80
56172;DHT22;42052;41.634;-0.946;2023-03-04T14:30:07;20.60;37.90
56172;DHT22;42052;41.634;-0.946;2023-03-04T14:32:56;20.60;37.90
56172;DHT22;42052;41.634;-0.946;2023-03-04T14:35:47;20.60;37.70
56172;DHT22;42052;41.634;-0.946;2023-03-04T14:38:37;20.60;37.70
56172;DHT22;42052;41.634;-0.946;2023-03-04T14:44:36;20.50;37.70
56172;DHT22;42052;41.634;-0.946;2023-03-04T14:47:38;20.50;37.70
56172;DHT22;42052;41.634;-0.946;2023-03-04T14:50:24;20.60;37.80
56172;DHT22;42052;41.634;-0.946;2023-03-04T14:53:14;20.50;37.70
56172;DHT22;42052;41.634;-0.946;2023-03-04T14:56:04;20.50;37.70
56172;DHT22;42052;41.634;-0.946;2023-03-04T14:58:53;20.60;37.60
56172;DHT22;42052;41.634;-0.946;2023-03-04T15:01:39;20.60;37.50
56172;DHT22;42052;41.634;-0.946;2023-03-04T15:04:25;20.60;37.70
56172;DHT22;42052;41.634;-0.946;2023-03-04T15:07:15;20.60;37.50
56172;DHT22;42052;41.634;-0.946;2023-03-04T15:10:09;20.60;37.50
56172;DHT22;42052;41.634;-0.946;2023-03-04T15:13:00;20.60;37.40
56172;DHT22;42052;41.634;-0.946;2023-03-04T15:15:47;20.60;37.30
56172;DHT22;42052;41.634;-0.946;2023-03-04T15:18:33;20.60;37.30
56172;DHT22;42052;41.634;-0.946;2023-03-04T15:24:08;20.60;37.20
56172;DHT22;42052;41.634;-0.946;2023-03-04T15:26:56;20.60;38.00
56172;DHT22;42052;41.634;-0.946;2023-03-04T15:29:42;20.60;37.20
56172;DHT22;42052;41.634;-0.946;2023-03-04T15:32:29;20.60;37.20
56172;DHT22;42052;41.634;-0.946;2023-03-04T15:35:18;20.60;37.10
56172;DHT22;42052;41.634;-0.946;2023-03-04T15:38:10;20.60;37.20
56172;DHT22;42052;41.634;-0.946;2023-03-04T15:40:57;20.60;37.20
56172;DHT22;42052;41.634;-0.946;2023-03-04T15:43:44;20.60;37.20
56172;DHT22;42052;41.634;-0.946;2023-03-04T15:46:30;20.60;37.20
56172;DHT22;42052;41.634;-0.946;2023-03-04T15:49:16;20.60;37.20
56172;DHT22;42052;41.634;-0.946;2023-03-04T15:52:04;20.60;37.20
56172;DHT22;42052;41.634;-0.946;2023-03-04T15:54:50;20.60;37.20
56172;DHT22;42052;41.634;-0.946;2023-03-04T15:57:37;20.50;37.10
56172;DHT22;42052;41.634;-0.946;2023-03-04T16:00:23;20.50;37.10
56172;DHT22;42052;41.634;-0.946;2023-03-04T16:03:16;20.50;36.90
56172;DHT22;42052;41.634;-0.946;2023-03-04T16:06:02;20.50;37.00
56172;DHT22;42052;41.634;-0.946;2023-03-04T16:08:51;20.60;36.90
56172;DHT22;42052;41.634;-0.946;2023-03-04T16:11:40;20.50;37.00
56172;DHT22;42052;41.634;-0.946;2023-03-04T16:14:29;20.50;37.10
56172;DHT22;42052;41.634;-0.946;2023-03-04T16:17:15;20.50;36.90
56172;DHT22;42052;41.634;-0.946;2023-03-04T16:20:01;20.50;37.10
56172;DHT22;42052;41.634;-0.946;2023-03-04T16:22:50;20.50;37.20
56172;DHT22;42052;41.634;-0.946;2023-03-04T16:25:37;20.60;37.20
56172;DHT22;42052;41.634;-0.946;2023-03-04T16:28:23;20.60;37.10
56172;DHT22;42052;41.634;-0.946;2023-03-04T16:31:11;20.60;36.70
56172;DHT22;42052;41.634;-0.946;2023-03-04T16:33:57;20.70;36.60
56172;DHT22;42052;41.634;-0.946;2023-03-04T16:36:43;20.70;36.50
56172;DHT22;42052;41.634;-0.946;2023-03-04T16:39:29;20.70;36.50
56172;DHT22;42052;41.634;-0.946;2023-03-04T16:42:17;20.70;36.60
56172;DHT22;42052;41.634;-0.946;2023-03-04T16:45:04;20.80;37.20
56172;DHT22;42052;41.634;-0.946;2023-03-04T16:47:52;20.80;36.80
56172;DHT22;42052;41.634;-0.946;2023-03-04T16:50:38;20.80;36.60
56172;DHT22;42052;41.634;-0.946;2023-03-04T16:53:32;20.80;36.50
56172;DHT22;42052;41.634;-0.946;2023-03-04T16:56:19;20.80;36.40
56172;DHT22;42052;41.634;-0.946;2023-03-04T16:59:05;20.90;36.50
56172;DHT22;42052;41.634;-0.946;2023-03-04T17:01:53;20.80;36.40
56172;DHT22;42052;41.634;-0.946;2023-03-04T17:04:39;20.90;36.50
56172;DHT22;42052;41.634;-0.946;2023-03-04T17:07:25;20.90;36.40
56172;DHT22;42052;41.634;-0.946;2023-03-04T17:10:13;20.90;36.50
56172;DHT22;42052;41.634;-0.946;2023-03-04T17:12:59;20.90;36.40
56172;DHT22;42052;41.634;-0.946;2023-03-04T17:15:45;20.90;36.40
56172;DHT22;42052;41.634;-0.946;2023-03-04T17:18:32;20.90;36.40
56172;DHT22;42052;41.634;-0.946;2023-03-04T17:21:23;20.90;36.50
56172;DHT22;42052;41.634;-0.946;2023-03-04T17:24:09;20.90;36.50
56172;DHT22;42052;41.634;-0.946;2023-03-04T17:26:56;20.90;36.60
56172;DHT22;42052;41.634;-0.946;2023-03-04T17:29:42;20.90;36.50
56172;DHT22;42052;41.634;-0.946;2023-03-04T17:32:28;20.90;36.70
56172;DHT22;42052;41.634;-0.946;2023-03-04T17:35:17;20.90;36.70
56172;DHT22;42052;41.634;-0.946;2023-03-04T17:38:03;20.90;36.80
56172;DHT22;42052;41.634;-0.946;2023-03-04T17:40:49;20.90;36.60
56172;DHT22;42052;41.634;-0.946;2023-03-04T17:43:35;20.90;36.70
56172;DHT22;42052;41.634;-0.946;2023-03-04T17:46:24;20.90;36.60
56172;DHT22;42052;41.634;-0.946;2023-03-04T17:49:11;20.90;36.70
56172;DHT22;42052;41.634;-0.946;2023-03-04T17:51:57;20.90;36.70
56172;DHT22;42052;41.634;-0.946;2023-03-04T17:54:44;20.90;36.70
56172;DHT22;42052;41.634;-0.946;2023-03-04T17:57:30;20.80;36.70
56172;DHT22;42052;41.634;-0.946;2023-03-04T18:00:20;20.90;36.60
56172;DHT22;42052;41.634;-0.946;2023-03-04T18:03:12;20.80;36.70
56172;DHT22;42052;41.634;-0.946;2023-03-04T18:05:58;20.80;36.80
56172;DHT22;42052;41.634;-0.946;2023-03-04T18:08:45;20.90;37.70
56172;DHT22;42052;41.634;-0.946;2023-03-04T18:11:32;20.80;36.90
56172;DHT22;42052;41.634;-0.946;2023-03-04T18:14:19;20.80;36.90
56172;DHT22;42052;41.634;-0.946;2023-03-04T18:17:05;20.80;37.00
56172;DHT22;42052;41.634;-0.946;2023-03-04T18:19:51;20.80;36.90
56172;DHT22;42052;41.634;-0.946;2023-03-04T18:22:37;20.80;36.90
56172;DHT22;42052;41.634;-0.946;2023-03-04T18:25:23;20.80;36.90
56172;DHT22;42052;41.634;-0.946;2023-03-04T18:28:10;20.90;36.90
56172;DHT22;42052;41.634;-0.946;2023-03-04T18:30:56;20.80;36.80
56172;DHT22;42052;41.634;-0.946;2023-03-04T18:33:42;20.80;36.90
56172;DHT22;42052;41.634;-0.946;2023-03-04T18:36:28;20.80;36.90
56172;DHT22;42052;41.634;-0.946;2023-03-04T18:39:15;20.80;36.90
56172;DHT22;42052;41.634;-0.946;2023-03-04T18:42:02;20.90;37.00
56172;DHT22;42052;41.634;-0.946;2023-03-04T18:44:48;20.80;36.90
56172;DHT22;42052;41.634;-0.946;2023-03-04T18:47:34;20.80;36.90
56172;DHT22;42052;41.634;-0.946;2023-03-04T18:50:21;20.90;37.00
56172;DHT22;42052;41.634;-0.946;2023-03-04T18:53:07;20.80;36.90
56172;DHT22;42052;41.634;-0.946;2023-03-04T18:55:54;20.80;36.90
56172;DHT22;42052;41.634;-0.946;2023-03-04T18:58:43;20.80;36.90
56172;DHT22;42052;41.634;-0.946;2023-03-04T19:01:29;20.80;36.90
56172;DHT22;42052;41.634;-0.946;2023-03-04T19:04:17;20.90;36.90
56172;DHT22;42052;41.634;-0.946;2023-03-04T19:07:04;20.80;36.80
56172;DHT22;42052;41.634;-0.946;2023-03-04T19:09:50;20.80;36.80
56172;DHT22;42052;41.634;-0.946;2023-03-04T19:12:36;20.80;36.90
56172;DHT22;42052;41.634;-0.946;2023-03-04T19:15:22;20.80;36.80